• Join FlightAware (Why Join?)
  • Login
  • US Flag 
03:49AM EDT


 

Airport Tracker/Info


-or-


 

Live Flight TrackerFlight Track Log ✈ VNR104 ✈ 10-May-2013 ✈ KABQ - KLAS

Flight Track Log - Related Links

Times and Time Zones

All times are in EDT time to prevent confusion due to time zone crossing. See the VNR104 flight status page for this flight to view local times or setup timezone preferences in your user account.

Time Position Orientation Groundspeed Altitude Reporting Facility
EDT Latitude Longitude Course Direction KTS MPH feet Rate Location/Type
10:35PM 35.0236 -106.7233 280° West 208 239 8,500  Level Albuquerque Center
10:35PM 35.0339 -106.7814 282° West 219 252 9,800 1,800 Climbing Albuquerque Center
10:37PM 35.0539 -106.8781 284° West 248 285 12,300 1,920 Climbing Albuquerque Center
10:38PM 35.0703 -106.9456 287° West 249 287 14,200 1,620 Climbing Albuquerque Center
10:39PM 35.0894 -107.0317 285° West 259 298 15,600 2,160 Climbing Albuquerque Center
10:40PM 35.1017 -107.1356 278° West 258 297 18,700 2,340 Climbing Albuquerque Center
10:41PM 35.1100 -107.2192 277° West 258 297 20,400 1,680 Climbing Albuquerque Center
10:42PM 35.1053 -107.3081 266° West 262 302 22,200 1,800 Climbing Albuquerque Center
10:43PM 35.0997 -107.4006 266° West 271 312 24,200 1,800 Climbing Albuquerque Center
10:44PM 35.1069 -107.4886 276° West 265 305 25,900 840 Climbing Albuquerque Center
10:45PM 35.1206 -107.5883 280° West 293 337 26,000 240 Climbing Albuquerque Center
10:46PM 35.1331 -107.7192 277° West 335 386 26,400 960 Climbing Albuquerque Center
10:47PM 35.1442 -107.8242 277° West 331 381 28,000 780 Climbing Albuquerque Center
10:48PM 35.1561 -107.9317 278° West 330 380 28,000  Level Albuquerque Center
10:49PM 35.1719 -108.0656 278° West 349 402 28,000  Level Albuquerque Center
10:50PM 35.1831 -108.1844 277° West 362 417 28,000  Level Albuquerque Center
10:51PM 35.1981 -108.3258 277° West 372 428 28,000  Level Albuquerque Center
10:52PM 35.2114 -108.4450 278° West 370 426 28,000  Level Albuquerque Center
10:53PM 35.2228 -108.5656 277° West 371 427 28,000  Level Albuquerque Center
10:54PM 35.2364 -108.7075 277° West 374 430 28,000  Level Albuquerque Center
10:55PM 35.2447 -108.8292 275° West 374 430 28,000  Level Albuquerque Center
10:56PM 35.2589 -108.9506 278° West 375 432 28,000  Level Albuquerque Center
10:57PM 35.2722 -109.0944 277° West 379 436 28,000  Level Albuquerque Center
10:58PM 35.2844 -109.2161 277° West 377 434 28,000  Level Albuquerque Center
10:59PM 35.2967 -109.3403 277° West 380 437 28,000  Level Albuquerque Center
11:00PM 35.3108 -109.4839 277° West 381 438 28,000  Level Albuquerque Center
11:01PM 35.3217 -109.6056 276° West 378 435 28,000  Level Albuquerque Center
11:02PM 35.3353 -109.7500 277° West 379 436 28,000  Level Albuquerque Center
11:03PM 35.3472 -109.8756 277° West 386 444 28,000  Level Albuquerque Center
11:04PM 35.3581 -109.9969 276° West 380 437 28,000  Level Albuquerque Center
11:05PM 35.3700 -110.1386 276° West 375 432 28,000  Level Albuquerque Center
11:06PM 35.3797 -110.2617 276° West 378 435 28,000  Level Albuquerque Center
11:07PM 35.3894 -110.3839 276° West 378 435 28,000  Level Albuquerque Center
11:08PM 35.4011 -110.5269 276° West 377 434 28,000  Level Albuquerque Center
11:09PM 35.4122 -110.6497 276° West 378 435 28,000  Level Albuquerque Center
11:10PM 35.4219 -110.7700 276° West 375 432 28,000  Level Albuquerque Center
11:11PM 35.4344 -110.9142 276° West 379 436 28,000  Level Albuquerque Center
11:12PM 35.4456 -111.0408 276° West 385 443 28,000  Level Albuquerque Center
11:13PM 35.4564 -111.1872 275° West 387 445 28,000  Level Albuquerque Center
11:14PM 35.4681 -111.3131 277° West 388 447 28,000  Level Albuquerque Center
11:15PM 35.4783 -111.4481 275° West 386 444 28,000  Level Albuquerque Center
11:16PM 35.4889 -111.5789 276° West 389 448 28,000  Level Albuquerque Center
11:17PM 35.4986 -111.7089 275° West 386 444 28,000  Level Albuquerque Center
11:18PM 35.5031 -111.8389 272° West 385 443 28,000  Level Albuquerque Center
11:19PM 35.5106 -111.9700 274° West 388 447 28,000 -300 Level Albuquerque Center
11:20PM 35.5303 -112.1003 281° West 391 450 27,500 -600 Descending Albuquerque Center
11:21PM 35.5347 -112.1531 276° West 393 452 27,200 -840 Descending Los Angeles Center
11:21PM 35.5547 -112.2233 289° West 369 425 26,700 -840 Descending Albuquerque Center
11:23PM 35.5928 -112.3669 288° West 373 429 25,800 -720 Descending Albuquerque Center
11:23PM 35.6000 -112.3928 289° West 376 433 25,700 -720 Descending Los Angeles Center
11:24PM 35.6381 -112.5428 287° West 388 447 24,800 -840 Descending Los Angeles Center
11:25PM 35.6681 -112.6633 287° West 381 438 24,100 -540 Descending Los Angeles Center
11:26PM 35.7008 -112.7881 288° West 376 433 23,800 -720 Descending Los Angeles Center
11:27PM 35.7308 -112.9103 287° West 378 435 22,700 -1,080 Descending Los Angeles Center
11:28PM 35.7603 -113.0303 287° West 373 429 21,600 -1,200 Descending Los Angeles Center
11:29PM 35.7961 -113.1747 287° West 372 428 20,300 -1,260 Descending Los Angeles Center
11:30PM 35.8236 -113.2883 287° West 360 414 19,100 -1,140 Descending Los Angeles Center
11:31PM 35.8517 -113.4011 287° West 351 404 18,000 -1,020 Descending Los Angeles Center
11:32PM 35.8783 -113.5117 287° West 344 396 17,000 -1,080 Descending Los Angeles Center
11:33PM 35.9061 -113.6217 287° West 332 382 15,800 -1,140 Descending Los Angeles Center
11:34PM 35.9314 -113.7275 286° West 325 374 14,700 -1,260 Descending Los Angeles Center
11:35PM 35.9622 -113.8558 287° West 324 373 13,300 -1,260 Descending Los Angeles Center
11:36PM 35.9858 -113.9583 286° West 313 360 12,200 -1,080 Descending Los Angeles Center
11:37PM 36.0108 -114.0603 287° West 311 358 11,100 -960 Descending Los Angeles Center
11:38PM 36.0347 -114.1628 286° West 309 356 10,300 -600 Descending Los Angeles Center
11:39PM 36.0639 -114.2719 288° West 312 359 10,000 -180 Descending Los Angeles Center
11:40PM 36.0931 -114.3633 292° West 295 339 10,000 -240 Level Los Angeles Center
11:41PM 36.1303 -114.4522 297° West 301 346 9,600 -780 Descending Los Angeles Center
11:42PM 36.1097 -114.5444 255° West 295 339 8,500 -1,200 Descending Los Angeles Center
11:43PM 36.0278 -114.6042 211° Southwest 309 356 7,200 -960 Descending Los Angeles Center
11:44PM 36.0211 -114.6039 178° South 307 353 7,200 -240 Level Los Angeles Center
11:44PM 35.9694 -114.6531 218° Southwest 297 342 7,000 -240 Descending Los Angeles Center
11:45PM 35.9472 -114.6819 226° Southwest 295 339 7,000  Level Los Angeles Center
11:45PM 35.9117 -114.7336 230° Southwest 292 336 7,000  Level Los Angeles Center
11:46PM 35.8950 -114.7589 231° Southwest 292 336 7,000  Level Los Angeles Center
11:46PM 35.8772 -114.8222 251° West 287 330 7,000  Level Los Angeles Center
11:47PM 35.8650 -114.8508 242° Southwest 289 333 7,000  Level Los Angeles Center
11:47PM 35.8392 -114.9250 247° West 294 338 7,000  Level Los Angeles Center
11:48PM 35.8361 -114.9456 260° West 292 336 7,000  Level Los Angeles Center
11:48PM 35.8342 -115.0194 268° West 259 298 7,000  Level Los Angeles Center
11:49PM 35.8333 -115.0369 267° West 274 315 7,000  Level Los Angeles Center
11:49PM 35.8242 -115.1025 260° West 250 288 7,000  Level Los Angeles Center
11:50PM 35.8233 -115.1192 266° West 256 295 7,000  Level Los Angeles Center
11:50PM 35.8100 -115.1867 256° West 243 280 7,000  Level Los Angeles Center
11:51PM 35.8086 -115.2014 263° West 248 285 7,000  Level Los Angeles Center
11:51PM 35.8217 -115.2492 289° West 221 254 7,000  Level Los Angeles Center
11:52PM 35.8508 -115.2806 319° Northwest 215 247 7,000  Level Los Angeles Center
11:52PM 35.8644 -115.2881 336° Northwest 175 201 7,000 -600 Level Los Angeles Center
11:53PM 35.8944 -115.2789 14° North 195 224 6,400 -1,080 Descending Los Angeles Center
11:53PM 35.9108 -115.2625 39° Northeast 191 220 5,800 -1,080 Descending Los Angeles Center
11:54PM 35.9372 -115.2472 25° Northeast 187 215 5,300 -1,020 Descending Los Angeles Center
11:55PM 35.9550 -115.2372 24° Northeast 170 196 4,800 -420 Descending Los Angeles Center
11:55PM 35.9758 -115.2233 28° Northeast 183 211 4,900 -780 Climbing Los Angeles Center
11:55PM 35.9917 -115.2172 17° North 144 166 4,100 -1,140 Descending Los Angeles Center
11:56PM 36.0228 -115.2017 22° Northeast 122 140 3,500 -660 Descending Los Angeles Center
11:57PM 36.0489 -115.1833 30° Northeast 121 139 2,900 -720 Descending Los Angeles Center
11:58PM 36.0814 -115.1653 24° Northeast 129 148 2,100 -780 Descending Los Angeles Center